createdAt,value
2019-05-07T00:00:14.009Z,7.11
2019-05-07T00:01:13.999Z,7.03
2019-05-07T00:02:13.955Z,7.10
2019-05-07T00:03:13.952Z,7.13
2019-05-07T00:04:14.002Z,7.10
2019-05-07T00:05:13.953Z,7.24
2019-05-07T00:06:13.923Z,7.21
2019-05-07T00:07:13.937Z,7.16
2019-05-07T00:08:13.952Z,7.28
2019-05-07T00:09:13.890Z,7.28
2019-05-07T00:10:13.901Z,7.28
2019-05-07T00:11:13.915Z,7.31
2019-05-07T00:12:13.884Z,7.25
2019-05-07T00:13:13.902Z,7.31
2019-05-07T00:14:13.846Z,7.26
2019-05-07T00:15:13.822Z,7.40
2019-05-07T00:16:13.830Z,7.49
2019-05-07T00:17:13.820Z,7.50
2019-05-07T00:18:13.857Z,7.50
2019-05-07T00:19:13.772Z,7.57
2019-05-07T00:20:13.800Z,7.57
2019-05-07T00:21:13.752Z,7.61
2019-05-07T00:22:13.763Z,7.62
2019-05-07T00:23:13.745Z,7.66
2019-05-07T00:24:13.782Z,7.69
2019-05-07T00:25:13.735Z,7.61
2019-05-07T00:26:13.694Z,7.69
2019-05-07T00:27:13.738Z,7.71
2019-05-07T00:28:13.717Z,7.66
2019-05-07T00:29:13.698Z,7.76
2019-05-07T00:30:13.659Z,7.78
2019-05-07T00:31:13.671Z,7.71
2019-05-07T00:32:13.629Z,7.76
2019-05-07T00:33:13.651Z,7.77
2019-05-07T00:34:13.645Z,7.66
2019-05-07T00:35:13.635Z,7.66
2019-05-07T00:36:13.619Z,7.69
2019-05-07T00:37:13.587Z,7.62
2019-05-07T00:38:13.603Z,7.64
2019-05-07T00:39:13.553Z,7.58
2019-05-07T00:40:13.575Z,7.46
2019-05-07T00:41:13.581Z,7.52
2019-05-07T00:42:13.556Z,7.44
2019-05-07T00:43:13.618Z,7.42
2019-05-07T00:44:13.657Z,7.39
2019-05-07T00:45:17.817Z,7.28
2019-05-07T00:46:14.541Z,7.28
2019-05-07T00:47:13.533Z,7.18
2019-05-07T00:48:13.568Z,7.11
2019-05-07T00:49:13.467Z,7.03
2019-05-07T00:50:13.471Z,6.97
2019-05-07T00:51:13.448Z,7.00
2019-05-07T00:52:14.135Z,6.91
2019-05-07T00:53:13.460Z,6.93
2019-05-07T00:54:13.464Z,7.00
2019-05-07T00:55:13.403Z,7.00
2019-05-07T00:56:13.371Z,6.93
2019-05-07T00:57:13.367Z,6.97
2019-05-07T00:58:13.419Z,6.83
2019-05-07T00:59:13.345Z,6.89
2019-05-07T01:00:13.327Z,6.89
2019-05-07T01:01:13.349Z,6.92
2019-05-07T01:02:13.326Z,6.82
2019-05-07T01:03:13.388Z,6.85
2019-05-07T01:04:13.352Z,6.78
2019-05-07T01:05:13.272Z,6.83
2019-05-07T01:06:13.260Z,6.86
2019-05-07T01:07:13.249Z,6.75
2019-05-07T01:08:13.352Z,6.75
2019-05-07T01:09:13.266Z,6.73
2019-05-07T01:10:13.237Z,6.67
2019-05-07T01:11:13.327Z,6.73
2019-05-07T01:12:13.194Z,6.73
2019-05-07T01:13:13.186Z,6.78
2019-05-07T01:14:13.203Z,6.70
2019-05-07T01:15:17.094Z,6.65
2019-05-07T01:16:14.187Z,6.67
2019-05-07T01:17:13.137Z,6.64
2019-05-07T01:18:13.127Z,6.61
2019-05-07T01:19:13.154Z,6.74
2019-05-07T01:20:13.110Z,6.74
2019-05-07T01:21:13.337Z,6.75
2019-05-07T01:22:13.089Z,6.78
2019-05-07T01:23:13.481Z,6.78
2019-05-07T01:24:13.081Z,6.82
2019-05-07T01:25:13.053Z,6.86
2019-05-07T01:26:13.065Z,6.88
2019-05-07T01:27:13.034Z,6.88
2019-05-07T01:28:13.352Z,6.85
2019-05-07T01:29:13.074Z,6.74
2019-05-07T01:30:13.096Z,6.86
2019-05-07T01:31:12.988Z,6.75
2019-05-07T01:32:12.976Z,6.79
2019-05-07T01:33:13.039Z,6.85
2019-05-07T01:34:12.955Z,6.78
2019-05-07T01:35:13.082Z,6.82
2019-05-07T01:36:13.297Z,6.88
2019-05-07T01:37:12.917Z,6.81
2019-05-07T01:38:12.911Z,6.85
2019-05-07T01:39:13.195Z,6.89
2019-05-07T01:40:12.887Z,6.82
2019-05-07T01:41:12.888Z,6.75
2019-05-07T01:42:12.922Z,6.82
2019-05-07T01:43:12.856Z,6.82
2019-05-07T01:44:12.949Z,6.79
2019-05-07T01:45:13.009Z,6.65
2019-05-07T01:46:12.809Z,6.78
2019-05-07T01:47:13.171Z,6.65
2019-05-07T01:48:12.784Z,6.71
2019-05-07T01:49:12.808Z,6.70
2019-05-07T01:50:13.427Z,6.70
2019-05-07T01:51:13.022Z,6.78
2019-05-07T01:52:13.456Z,6.74
2019-05-07T01:53:12.775Z,6.73
2019-05-07T01:54:13.060Z,6.70
2019-05-07T01:55:13.037Z,6.71
2019-05-07T01:56:12.787Z,6.65
2019-05-07T01:57:12.697Z,6.57
2019-05-07T01:58:12.742Z,6.63
2019-05-07T01:59:12.684Z,6.55
2019-05-07T02:00:13.189Z,6.55
2019-05-07T02:01:13.203Z,6.53
2019-05-07T02:02:12.659Z,6.61
2019-05-07T02:03:12.623Z,6.55
2019-05-07T02:04:12.828Z,6.52
2019-05-07T02:05:12.654Z,6.45
2019-05-07T02:06:13.182Z,6.53
2019-05-07T02:07:12.575Z,6.55
2019-05-07T02:08:12.576Z,6.53
2019-05-07T02:09:13.032Z,6.43
2019-05-07T02:10:12.559Z,6.49
2019-05-07T02:11:12.918Z,6.40
2019-05-07T02:12:13.202Z,6.45
2019-05-07T02:13:12.682Z,6.55
2019-05-07T02:14:13.638Z,6.53
2019-05-07T02:15:12.534Z,6.55
2019-05-07T02:16:12.550Z,6.60
2019-05-07T02:17:13.667Z,6.61
2019-05-07T02:18:12.646Z,6.63
2019-05-07T02:19:12.759Z,6.65
2019-05-07T02:20:13.093Z,6.65
2019-05-07T02:21:13.016Z,6.81
2019-05-07T02:22:13.417Z,6.68
2019-05-07T02:23:12.894Z,6.65
2019-05-07T02:24:12.710Z,6.75
2019-05-07T02:25:12.781Z,6.78
2019-05-07T02:26:13.367Z,6.75
2019-05-07T02:27:12.677Z,6.75
2019-05-07T02:28:12.925Z,6.74
2019-05-07T02:29:12.422Z,6.74
2019-05-07T02:30:14.704Z,6.79
2019-05-07T02:31:14.912Z,6.82
2019-05-07T02:32:13.267Z,6.81
2019-05-07T02:33:13.727Z,6.79
2019-05-07T02:34:14.188Z,6.74
2019-05-07T02:35:13.505Z,6.73
2019-05-07T02:36:14.325Z,6.74
2019-05-07T02:37:12.300Z,6.67
2019-05-07T02:38:13.749Z,6.65
2019-05-07T02:39:13.053Z,6.75
2019-05-07T02:40:14.146Z,6.79
2019-05-07T02:41:14.144Z,6.64
2019-05-07T02:42:13.100Z,6.65
2019-05-07T02:43:14.004Z,6.63
2019-05-07T02:44:14.114Z,6.64
2019-05-07T02:45:13.298Z,6.64
2019-05-07T02:46:22.530Z,6.60
2019-05-07T02:47:13.162Z,6.56
2019-05-07T02:48:12.939Z,6.53
2019-05-07T02:49:14.262Z,6.53
2019-05-07T02:50:13.063Z,6.37
2019-05-07T02:51:13.227Z,6.50
2019-05-07T02:52:13.544Z,6.43
2019-05-07T02:53:13.782Z,6.52
2019-05-07T02:54:13.402Z,6.38
2019-05-07T02:55:13.401Z,6.45
2019-05-07T02:56:12.987Z,6.50
2019-05-07T02:57:13.310Z,6.43
2019-05-07T02:58:13.719Z,6.38
2019-05-07T02:59:13.686Z,6.47
2019-05-07T03:01:33.945Z,6.40
2019-05-07T03:02:33.204Z,6.50
2019-05-07T03:03:33.502Z,6.49
2019-05-07T03:04:33.280Z,6.56
2019-05-07T03:05:34.572Z,6.49
2019-05-07T03:06:33.917Z,6.57
2019-05-07T03:07:33.531Z,6.52
2019-05-07T03:08:33.156Z,6.53
2019-05-07T03:09:32.899Z,6.56
2019-05-07T03:10:33.934Z,6.52
2019-05-07T03:11:34.032Z,6.49
2019-05-07T03:12:33.537Z,6.55
2019-05-07T03:13:33.676Z,6.56
2019-05-07T03:14:32.391Z,6.56
2019-05-07T03:15:33.189Z,6.55
2019-05-07T03:16:39.745Z,6.57
2019-05-07T03:17:33.309Z,6.60
2019-05-07T03:18:33.401Z,6.53
2019-05-07T03:19:33.183Z,6.63
2019-05-07T03:20:33.414Z,6.64
2019-05-07T03:21:32.851Z,6.67
2019-05-07T03:22:33.794Z,6.57
2019-05-07T03:23:33.949Z,6.56
2019-05-07T03:24:34.142Z,6.56
2019-05-07T03:25:33.912Z,6.57
2019-05-07T03:26:34.088Z,6.53
2019-05-07T03:27:34.023Z,6.49
2019-05-07T03:28:33.574Z,6.50
2019-05-07T03:29:33.323Z,6.52
2019-05-07T03:30:35.517Z,6.55
2019-05-07T03:31:36.390Z,6.57
2019-05-07T03:32:37.843Z,6.60
2019-05-07T03:33:36.428Z,6.52
2019-05-07T03:34:36.097Z,6.60
2019-05-07T03:35:37.420Z,6.56
2019-05-07T03:36:35.408Z,6.52
2019-05-07T03:37:35.226Z,6.60
2019-05-07T03:38:33.512Z,6.56
2019-05-07T03:39:33.826Z,6.60
2019-05-07T03:40:32.843Z,6.52
2019-05-07T03:41:33.327Z,6.56
2019-05-07T03:42:33.523Z,6.57
2019-05-07T03:43:32.526Z,6.56
2019-05-07T03:44:33.819Z,6.53
2019-05-07T03:45:33.545Z,6.53
2019-05-07T03:46:33.612Z,6.55
2019-05-07T03:47:33.237Z,6.45
2019-05-07T03:48:33.332Z,6.37
2019-05-07T03:49:33.886Z,6.40
2019-05-07T03:50:33.680Z,6.38
2019-05-07T03:51:32.950Z,6.47
2019-05-07T03:52:33.508Z,6.45
2019-05-07T03:53:33.953Z,6.42
2019-05-07T03:54:33.741Z,6.42
2019-05-07T03:55:33.264Z,6.46
2019-05-07T03:56:33.014Z,6.57
2019-05-07T03:57:33.348Z,6.57
2019-05-07T03:58:33.657Z,6.55
2019-05-07T03:59:33.989Z,6.52
2019-05-07T04:00:33.271Z,6.55
2019-05-07T04:01:33.432Z,6.52
2019-05-07T04:02:33.194Z,6.63
2019-05-07T04:03:34.176Z,6.55
2019-05-07T04:04:33.225Z,6.53
2019-05-07T04:05:33.891Z,6.63
2019-05-07T04:06:33.192Z,6.50
2019-05-07T04:07:33.502Z,6.64
2019-05-07T04:08:33.483Z,6.68
2019-05-07T04:09:33.382Z,6.65
2019-05-07T04:10:33.515Z,6.64
2019-05-07T04:11:33.558Z,6.52
2019-05-07T04:12:34.002Z,6.56
2019-05-07T04:13:33.374Z,6.55
2019-05-07T04:14:34.102Z,6.57
2019-05-07T04:15:33.016Z,6.55
2019-05-07T04:16:33.210Z,6.55
2019-05-07T04:17:33.597Z,6.60
2019-05-07T04:18:32.898Z,6.64
2019-05-07T04:19:32.905Z,6.63
2019-05-07T04:20:33.397Z,6.65
2019-05-07T04:21:34.209Z,6.68
2019-05-07T04:22:30.673Z,6.67
2019-05-07T04:23:33.769Z,6.71
2019-05-07T04:24:33.173Z,6.73
2019-05-07T04:25:30.666Z,6.73
2019-05-07T04:26:33.632Z,6.71
2019-05-07T04:27:33.134Z,6.61
2019-05-07T04:28:33.415Z,6.64
2019-05-07T04:29:30.631Z,6.64
2019-05-07T04:30:33.095Z,6.63
2019-05-07T04:31:33.918Z,6.68
2019-05-07T04:32:33.237Z,6.64
2019-05-07T04:33:33.304Z,6.67
2019-05-07T04:34:33.565Z,6.68
2019-05-07T04:35:33.394Z,6.64
2019-05-07T04:36:33.805Z,6.60
2019-05-07T04:37:33.122Z,6.55
2019-05-07T04:38:33.146Z,6.57
2019-05-07T04:39:33.309Z,6.52
2019-05-07T04:40:33.633Z,6.53
2019-05-07T04:41:32.959Z,6.53
2019-05-07T04:42:33.106Z,6.53
2019-05-07T04:43:33.338Z,6.56
2019-05-07T04:44:33.034Z,6.57
2019-05-07T04:45:33.406Z,6.52
2019-05-07T04:46:33.061Z,6.55
2019-05-07T04:47:42.419Z,6.49
2019-05-07T04:48:34.180Z,6.55
2019-05-07T04:49:33.006Z,6.50
2019-05-07T04:50:39.554Z,6.64
2019-05-07T04:51:33.609Z,6.68
2019-05-07T04:52:33.386Z,6.70
2019-05-07T04:53:32.840Z,6.74
2019-05-07T04:54:32.901Z,6.82
2019-05-07T04:55:33.169Z,6.82
2019-05-07T04:56:33.452Z,6.88
2019-05-07T04:57:32.834Z,6.97
2019-05-07T04:58:30.324Z,6.92
2019-05-07T04:59:32.788Z,7.01
2019-05-07T05:00:33.339Z,7.00
2019-05-07T05:01:32.775Z,7.04
2019-05-07T05:02:32.494Z,7.03
2019-05-07T05:03:30.251Z,7.11
2019-05-07T05:04:34.412Z,7.03
2019-05-07T05:05:32.860Z,7.11
2019-05-07T05:06:32.746Z,7.11
2019-05-07T05:07:30.212Z,7.10
2019-05-07T05:08:32.596Z,7.11
2019-05-07T05:09:32.685Z,7.22
2019-05-07T05:10:30.158Z,7.24
2019-05-07T05:11:33.299Z,7.16
2019-05-07T05:12:32.543Z,7.21
2019-05-07T05:13:32.664Z,7.33
2019-05-07T05:14:30.181Z,7.25
2019-05-07T05:15:32.018Z,7.26
2019-05-07T05:16:30.146Z,7.33
2019-05-07T05:17:32.013Z,7.39
2019-05-07T05:18:30.062Z,7.37
2019-05-07T05:19:32.179Z,7.40
2019-05-07T05:20:30.041Z,7.36
2019-05-07T05:21:32.148Z,7.40
2019-05-07T05:22:31.752Z,7.37
2019-05-07T05:23:32.156Z,7.37
2019-05-07T05:24:30.004Z,7.39
2019-05-07T05:25:32.159Z,7.42
2019-05-07T05:26:32.333Z,7.54
2019-05-07T05:27:32.500Z,7.46
2019-05-07T05:28:32.175Z,7.52
2019-05-07T05:29:32.162Z,7.47
2019-05-07T05:30:29.940Z,7.52
2019-05-07T05:31:29.927Z,7.46
2019-05-07T05:32:29.970Z,7.43
2019-05-07T05:33:32.240Z,7.44
2019-05-07T05:34:29.924Z,7.50
2019-05-07T05:35:31.966Z,7.49
2019-05-07T05:36:29.912Z,7.58
2019-05-07T05:37:32.037Z,7.52
2019-05-07T05:38:29.926Z,7.55
2019-05-07T05:39:31.868Z,7.58
2019-05-07T05:40:31.855Z,7.61
2019-05-07T05:41:29.814Z,7.64
2019-05-07T05:42:29.807Z,7.66
2019-05-07T05:43:31.988Z,7.62
2019-05-07T05:44:31.865Z,7.60
2019-05-07T05:45:29.797Z,7.64
2019-05-07T05:46:31.440Z,7.69
2019-05-07T05:47:29.746Z,7.81
2019-05-07T05:48:29.737Z,7.76
2019-05-07T05:49:32.070Z,7.74
2019-05-07T05:50:29.770Z,7.73
2019-05-07T05:51:29.714Z,7.77
2019-05-07T05:52:29.708Z,7.78
2019-05-07T05:53:29.768Z,7.83
2019-05-07T05:54:31.731Z,7.86
2019-05-07T05:55:29.695Z,7.88
2019-05-07T05:56:29.695Z,7.92
2019-05-07T05:57:32.111Z,7.94
2019-05-07T05:58:29.683Z,8.02
2019-05-07T05:59:46.934Z,7.98
2019-05-07T06:00:32.705Z,8.05
2019-05-07T06:01:32.005Z,8.01
2019-05-07T06:02:31.778Z,8.05
2019-05-07T06:03:29.634Z,8.10
2019-05-07T06:04:29.581Z,8.20
2019-05-07T06:05:29.559Z,8.16
2019-05-07T06:06:29.548Z,8.19
2019-05-07T06:07:31.766Z,8.24
2019-05-07T06:08:29.543Z,8.28
2019-05-07T06:09:29.541Z,8.26
2019-05-07T06:10:29.502Z,8.32
2019-05-07T06:11:29.497Z,8.37
2019-05-07T06:12:29.489Z,8.41
2019-05-07T06:13:29.498Z,8.39
2019-05-07T06:14:29.460Z,8.52
2019-05-07T06:15:29.504Z,8.47
2019-05-07T06:16:29.437Z,8.47
2019-05-07T06:17:31.471Z,8.49
2019-05-07T06:18:29.436Z,8.52
2019-05-07T06:19:29.405Z,8.57
2019-05-07T06:20:31.956Z,8.60
2019-05-07T06:21:29.377Z,8.71
2019-05-07T06:22:29.355Z,8.75
2019-05-07T06:23:29.356Z,8.72
2019-05-07T06:24:29.328Z,8.72
2019-05-07T06:25:33.212Z,8.75
2019-05-07T06:26:29.357Z,8.71
2019-05-07T06:27:29.309Z,8.72
2019-05-07T06:28:29.316Z,8.88
2019-05-07T06:29:29.293Z,8.88
2019-05-07T06:30:29.304Z,8.80
2019-05-07T06:31:29.316Z,8.86
2019-05-07T06:32:29.274Z,8.88
2019-05-07T06:33:29.243Z,8.99
2019-05-07T06:34:29.235Z,8.99
2019-05-07T06:35:29.255Z,8.93
2019-05-07T06:36:29.215Z,8.98
2019-05-07T06:37:29.255Z,9.01
2019-05-07T06:38:29.219Z,9.01
2019-05-07T06:39:29.158Z,9.04
2019-05-07T06:40:29.647Z,9.06
2019-05-07T06:41:29.161Z,9.08
2019-05-07T06:42:29.128Z,9.03
2019-05-07T06:43:29.140Z,9.08
2019-05-07T06:44:29.177Z,9.15
2019-05-07T06:45:29.153Z,9.12
2019-05-07T06:46:29.128Z,9.14
2019-05-07T06:47:29.115Z,9.16
2019-05-07T06:48:40.842Z,9.18
2019-05-07T06:49:32.290Z,9.22
2019-05-07T06:50:29.113Z,9.24
2019-05-07T06:51:29.065Z,9.22
2019-05-07T06:52:29.057Z,9.29
2019-05-07T06:53:29.044Z,9.24
2019-05-07T06:54:28.993Z,9.23
2019-05-07T06:55:28.999Z,9.29
2019-05-07T06:56:29.062Z,9.23
2019-05-07T06:57:28.999Z,9.27
2019-05-07T06:58:29.086Z,9.24
2019-05-07T06:59:32.584Z,9.27
2019-05-07T07:00:31.934Z,9.32
2019-05-07T07:01:28.989Z,9.37
2019-05-07T07:02:28.917Z,9.32
2019-05-07T07:03:28.942Z,9.32
2019-05-07T07:04:28.928Z,9.30
2019-05-07T07:05:28.895Z,9.36
2019-05-07T07:06:28.944Z,9.44
2019-05-07T07:07:34.111Z,9.41
2019-05-07T07:08:29.877Z,9.44
2019-05-07T07:09:28.840Z,9.47
2019-05-07T07:10:28.847Z,9.42
2019-05-07T07:11:28.863Z,9.47
2019-05-07T07:12:28.828Z,9.54
2019-05-07T07:13:28.835Z,9.45
2019-05-07T07:14:28.809Z,9.54
2019-05-07T07:15:28.770Z,9.48
2019-05-07T07:16:28.750Z,9.57
2019-05-07T07:17:28.757Z,9.54
2019-05-07T07:18:28.732Z,9.63
2019-05-07T07:19:28.754Z,9.66
2019-05-07T07:20:28.761Z,9.67
2019-05-07T07:21:28.683Z,9.63
2019-05-07T07:22:28.695Z,9.73
2019-05-07T07:23:28.677Z,9.77
2019-05-07T07:24:28.725Z,9.72
2019-05-07T07:25:28.725Z,9.85
2019-05-07T07:26:28.685Z,9.77
2019-05-07T07:27:28.617Z,9.81
2019-05-07T07:28:28.649Z,9.85
2019-05-07T07:29:28.607Z,9.87
2019-05-07T07:30:28.604Z,9.90
2019-05-07T07:31:28.601Z,9.98
2019-05-07T07:32:28.583Z,9.91
2019-05-07T07:33:28.572Z,9.98
2019-05-07T07:34:28.581Z,10.02
2019-05-07T07:35:28.596Z,10.16
2019-05-07T07:36:28.564Z,10.06
2019-05-07T07:37:28.542Z,10.09
2019-05-07T07:38:28.536Z,10.17
2019-05-07T07:39:28.524Z,10.14
2019-05-07T07:40:28.535Z,10.14
2019-05-07T07:41:28.529Z,10.21
2019-05-07T07:42:28.543Z,10.12
2019-05-07T07:43:28.479Z,10.18
2019-05-07T07:44:28.463Z,10.36
2019-05-07T07:45:28.450Z,10.27
2019-05-07T07:46:28.504Z,10.34
2019-05-07T07:47:28.440Z,10.41
2019-05-07T07:48:28.438Z,10.41
2019-05-07T07:49:28.400Z,10.48
2019-05-07T07:50:28.403Z,10.46
2019-05-07T07:51:40.518Z,10.57
2019-05-07T07:52:29.371Z,10.52
2019-05-07T07:53:28.365Z,10.55
2019-05-07T07:54:28.347Z,10.57
2019-05-07T07:55:28.380Z,10.57
2019-05-07T07:56:28.317Z,10.57
2019-05-07T07:57:28.317Z,10.57
2019-05-07T07:58:28.307Z,10.65
2019-05-07T07:59:28.305Z,10.68
2019-05-07T08:00:30.096Z,10.67
2019-05-07T08:01:28.281Z,10.65
2019-05-07T08:02:28.269Z,10.75
2019-05-07T08:03:28.263Z,10.73
2019-05-07T08:04:28.274Z,10.67
2019-05-07T08:05:28.273Z,10.72
2019-05-07T08:06:28.224Z,10.70
2019-05-07T08:07:28.210Z,10.80
2019-05-07T08:08:28.182Z,10.72
2019-05-07T08:09:28.188Z,10.80
2019-05-07T08:10:28.196Z,10.83
2019-05-07T08:11:28.181Z,10.83
2019-05-07T08:12:28.125Z,10.86
2019-05-07T08:13:28.117Z,10.94
2019-05-07T08:14:28.097Z,10.85
2019-05-07T08:15:28.163Z,10.95
2019-05-07T08:16:28.093Z,10.90
2019-05-07T08:17:28.076Z,10.91
2019-05-07T08:18:28.086Z,10.91
2019-05-07T08:19:28.053Z,11.03
2019-05-07T08:20:28.025Z,11.03
2019-05-07T08:21:28.090Z,11.01
2019-05-07T08:22:28.020Z,11.03
2019-05-07T08:23:28.012Z,11.08
2019-05-07T08:24:28.010Z,11.12
2019-05-07T08:25:28.019Z,11.11
2019-05-07T08:26:28.055Z,11.16
2019-05-07T08:27:27.962Z,11.18
2019-05-07T08:28:27.955Z,11.11
2019-05-07T08:29:27.945Z,11.16
2019-05-07T08:30:27.926Z,11.15
2019-05-07T08:31:27.935Z,11.20
2019-05-07T08:32:27.945Z,11.22
2019-05-07T08:33:27.916Z,11.19
2019-05-07T08:34:27.896Z,11.25
2019-05-07T08:35:27.903Z,11.31
2019-05-07T08:36:27.947Z,11.30
2019-05-07T08:37:27.854Z,11.37
2019-05-07T08:38:29.984Z,11.33
2019-05-07T08:39:27.880Z,11.36
2019-05-07T08:40:27.801Z,11.37
2019-05-07T08:41:27.842Z,11.37
2019-05-07T08:42:27.829Z,11.36
2019-05-07T08:43:27.770Z,11.41
2019-05-07T08:44:27.801Z,11.40
2019-05-07T08:45:27.810Z,11.46
2019-05-07T08:46:27.745Z,11.46
2019-05-07T08:47:27.748Z,11.51
2019-05-07T08:48:27.714Z,11.61
2019-05-07T08:49:37.065Z,11.56
2019-05-07T08:50:28.716Z,11.58
2019-05-07T08:51:27.706Z,11.56
2019-05-07T08:52:27.692Z,11.70
2019-05-07T08:53:27.665Z,11.69
2019-05-07T08:54:27.706Z,11.70
2019-05-07T08:55:27.651Z,11.76
2019-05-07T08:56:27.659Z,11.76
2019-05-07T08:57:27.705Z,11.76
2019-05-07T08:58:27.627Z,11.74
2019-05-07T08:59:27.643Z,11.82
2019-05-07T09:00:27.663Z,11.91
2019-05-07T09:01:27.584Z,11.91
2019-05-07T09:02:27.600Z,11.88
2019-05-07T09:03:27.564Z,11.88
2019-05-07T09:04:27.555Z,11.89
2019-05-07T09:05:27.633Z,11.85
2019-05-07T09:06:27.558Z,11.80
2019-05-07T09:07:27.500Z,11.70
2019-05-07T09:08:27.531Z,11.74
2019-05-07T09:09:27.558Z,11.74
2019-05-07T09:10:27.514Z,11.71
2019-05-07T09:11:27.503Z,11.67
2019-05-07T09:12:27.466Z,11.69
2019-05-07T09:13:27.455Z,11.69
2019-05-07T09:14:27.489Z,11.80
2019-05-07T09:15:27.443Z,11.67
2019-05-07T09:16:27.441Z,11.71
2019-05-07T09:17:27.389Z,11.69
2019-05-07T09:18:27.417Z,11.77
2019-05-07T09:19:27.442Z,11.74
2019-05-07T09:20:27.454Z,11.73
2019-05-07T09:21:27.424Z,11.74
2019-05-07T09:22:27.368Z,11.76
2019-05-07T09:23:27.357Z,11.89
2019-05-07T09:24:27.329Z,11.93
2019-05-07T09:25:27.373Z,11.89
2019-05-07T09:26:27.299Z,11.97
2019-05-07T09:27:27.290Z,11.99
2019-05-07T09:28:27.320Z,12.07
2019-05-07T09:29:27.269Z,12.13
2019-05-07T09:30:28.626Z,12.22
2019-05-07T09:31:27.285Z,12.17
2019-05-07T09:32:27.232Z,12.15
2019-05-07T09:33:27.250Z,12.23
2019-05-07T09:34:27.216Z,12.28
2019-05-07T09:35:27.204Z,12.23
2019-05-07T09:36:27.253Z,12.22
2019-05-07T09:37:27.190Z,12.26
2019-05-07T09:38:27.166Z,12.28
2019-05-07T09:39:27.236Z,12.29
2019-05-07T09:40:27.187Z,12.33
2019-05-07T09:41:27.179Z,12.38
2019-05-07T09:42:27.125Z,12.47
2019-05-07T09:43:27.311Z,12.44
2019-05-07T09:44:27.101Z,12.50
2019-05-07T09:45:27.107Z,12.51
2019-05-07T09:46:27.090Z,12.54
2019-05-07T09:47:27.077Z,12.62
2019-05-07T09:48:27.115Z,12.66
2019-05-07T09:49:27.085Z,12.59
2019-05-07T09:50:27.064Z,12.63
2019-05-07T09:51:27.025Z,12.61
2019-05-07T09:52:26.993Z,12.62
2019-05-07T09:53:27.045Z,12.66
2019-05-07T09:54:27.027Z,12.68
2019-05-07T09:55:27.034Z,12.66
2019-05-07T09:56:26.968Z,12.69
2019-05-07T09:57:31.208Z,12.71
2019-05-07T09:58:36.475Z,12.71
2019-05-07T09:59:27.941Z,12.69
2019-05-07T10:00:26.949Z,12.69
2019-05-07T10:01:26.940Z,12.66
2019-05-07T10:02:26.901Z,12.65
2019-05-07T10:03:26.927Z,12.65
2019-05-07T10:04:26.893Z,12.71
2019-05-07T10:05:26.862Z,12.62
2019-05-07T10:06:26.873Z,12.61
2019-05-07T10:07:26.855Z,12.68
2019-05-07T10:08:26.868Z,12.59
2019-05-07T10:09:26.833Z,12.65
2019-05-07T10:10:26.836Z,12.65
2019-05-07T10:11:26.804Z,12.66
2019-05-07T10:12:26.814Z,12.69
2019-05-07T10:13:26.814Z,12.68
2019-05-07T10:14:26.770Z,12.66
2019-05-07T10:15:26.775Z,12.63
2019-05-07T10:16:26.780Z,12.66
2019-05-07T10:17:26.730Z,12.66
2019-05-07T10:18:26.787Z,12.72
2019-05-07T10:19:26.693Z,12.66
2019-05-07T10:20:26.702Z,12.63
2019-05-07T10:21:26.750Z,12.69
2019-05-07T10:22:26.715Z,12.66
2019-05-07T10:23:26.730Z,12.65
2019-05-07T10:24:26.655Z,12.69
2019-05-07T10:25:26.725Z,12.65
2019-05-07T10:26:26.654Z,12.73
2019-05-07T10:27:26.613Z,12.69
2019-05-07T10:28:26.625Z,12.80
2019-05-07T10:29:26.615Z,12.68
2019-05-07T10:30:26.603Z,12.79
2019-05-07T10:31:26.639Z,12.84
2019-05-07T10:32:26.583Z,12.81
2019-05-07T10:33:26.576Z,12.86
2019-05-07T10:34:26.566Z,12.91
2019-05-07T10:35:26.559Z,12.93
2019-05-07T10:36:26.541Z,12.80
2019-05-07T10:37:26.544Z,12.87
2019-05-07T10:38:26.550Z,12.81
2019-05-07T10:39:26.526Z,12.80
2019-05-07T10:40:26.491Z,12.83
2019-05-07T10:41:26.484Z,12.83
2019-05-07T10:42:26.467Z,12.91
2019-05-07T10:43:26.465Z,12.95
2019-05-07T10:44:26.491Z,13.06
2019-05-07T10:45:26.425Z,13.04
2019-05-07T10:46:26.449Z,13.06
2019-05-07T10:47:26.433Z,13.05
2019-05-07T10:48:26.408Z,13.05
2019-05-07T10:49:26.436Z,13.04
2019-05-07T10:50:36.429Z,13.09
2019-05-07T10:51:27.399Z,13.11
2019-05-07T10:52:26.336Z,13.11
2019-05-07T10:53:26.321Z,13.09
2019-05-07T10:54:26.439Z,13.16
2019-05-07T10:55:26.304Z,13.13
2019-05-07T10:56:26.311Z,13.13
2019-05-07T10:57:26.353Z,13.16
2019-05-07T10:58:26.274Z,13.14
2019-05-07T10:59:26.285Z,13.08
2019-05-07T11:00:26.341Z,13.05
2019-05-07T11:01:26.305Z,13.05
2019-05-07T11:02:26.290Z,13.08
2019-05-07T11:03:26.296Z,13.06
2019-05-07T11:04:39.306Z,13.20
2019-05-07T11:05:27.239Z,13.11
2019-05-07T11:06:26.309Z,13.26
2019-05-07T11:07:26.221Z,13.17
2019-05-07T11:08:26.292Z,13.11
2019-05-07T11:09:26.225Z,13.23
2019-05-07T11:10:26.293Z,13.21
2019-05-07T11:11:26.200Z,13.23
2019-05-07T11:12:26.181Z,13.14
2019-05-07T11:13:26.155Z,13.13
2019-05-07T11:14:26.169Z,13.17
2019-05-07T11:15:26.101Z,13.17
2019-05-07T11:16:26.096Z,13.26
2019-05-07T11:17:26.089Z,13.17
2019-05-07T11:18:26.105Z,13.14
2019-05-07T11:19:26.122Z,13.24
2019-05-07T11:20:26.090Z,13.23
2019-05-07T11:21:26.083Z,13.14
2019-05-07T11:22:26.041Z,13.17
2019-05-07T11:23:26.025Z,13.09
2019-05-07T11:24:26.079Z,13.24
2019-05-07T11:25:26.032Z,13.17
2019-05-07T11:26:25.983Z,13.20
2019-05-07T11:27:25.973Z,13.09
2019-05-07T11:28:25.962Z,13.11
2019-05-07T11:29:25.974Z,13.16
2019-05-07T11:30:25.950Z,13.14
2019-05-07T11:31:25.966Z,13.24
2019-05-07T11:32:25.916Z,13.21
2019-05-07T11:33:25.904Z,13.27
2019-05-07T11:34:25.906Z,13.14
2019-05-07T11:35:25.922Z,13.21
2019-05-07T11:36:25.890Z,13.13
2019-05-07T11:37:25.892Z,13.14
2019-05-07T11:38:25.850Z,13.20
2019-05-07T11:39:25.840Z,13.23
2019-05-07T11:40:25.866Z,13.14
2019-05-07T11:41:25.829Z,13.23
2019-05-07T11:42:25.856Z,13.11
2019-05-07T11:43:25.802Z,13.09
2019-05-07T11:44:25.782Z,13.11
2019-05-07T11:45:25.822Z,13.09
2019-05-07T11:46:25.784Z,13.16
2019-05-07T11:47:25.800Z,13.21
2019-05-07T11:48:25.773Z,13.17
2019-05-07T11:49:25.726Z,13.23
2019-05-07T11:50:25.749Z,13.16
2019-05-07T11:51:25.707Z,13.23
2019-05-07T11:52:25.760Z,13.21
2019-05-07T11:53:25.686Z,13.23
2019-05-07T11:54:25.683Z,13.23
2019-05-07T11:55:25.669Z,13.23
2019-05-07T11:56:25.753Z,13.20
2019-05-07T11:57:25.671Z,13.21
2019-05-07T11:58:25.632Z,13.26
2019-05-07T11:59:25.644Z,13.30
2019-05-07T12:00:25.633Z,13.39
2019-05-07T12:01:25.624Z,13.36
2019-05-07T12:02:25.648Z,13.45
2019-05-07T12:03:25.612Z,13.40
2019-05-07T12:04:27.831Z,13.49
2019-05-07T12:05:25.587Z,13.45
2019-05-07T12:06:25.575Z,13.43
2019-05-07T12:07:25.584Z,13.45
2019-05-07T12:08:37.498Z,13.47
2019-05-07T12:09:26.574Z,13.45
2019-05-07T12:10:25.529Z,13.45
2019-05-07T12:11:25.517Z,13.55
2019-05-07T12:12:25.511Z,13.47
2019-05-07T12:13:25.535Z,13.46
2019-05-07T12:14:30.918Z,13.40
2019-05-07T12:15:26.470Z,13.46
2019-05-07T12:16:25.443Z,13.47
2019-05-07T12:17:25.502Z,13.35
2019-05-07T12:18:25.423Z,13.45
2019-05-07T12:19:25.403Z,13.42
2019-05-07T12:20:25.420Z,13.49
2019-05-07T12:21:25.397Z,13.54
2019-05-07T12:22:25.405Z,13.47
2019-05-07T12:23:25.360Z,13.49
2019-05-07T12:24:25.382Z,13.53
2019-05-07T12:25:25.368Z,13.58
2019-05-07T12:26:25.380Z,13.55
2019-05-07T12:27:25.614Z,13.58
2019-05-07T12:28:25.331Z,13.55
2019-05-07T12:29:25.320Z,13.57
2019-05-07T12:30:25.294Z,13.60
2019-05-07T12:31:25.273Z,13.61
2019-05-07T12:32:25.263Z,13.65
2019-05-07T12:33:25.315Z,13.64
2019-05-07T12:34:25.245Z,13.64
2019-05-07T12:35:25.262Z,13.78
2019-05-07T12:36:25.245Z,13.78
2019-05-07T12:37:25.250Z,13.79
2019-05-07T12:38:25.224Z,13.82
2019-05-07T12:39:25.216Z,13.79
2019-05-07T12:40:25.178Z,13.75
2019-05-07T12:41:25.199Z,13.78
2019-05-07T12:42:25.208Z,13.85
2019-05-07T12:43:25.156Z,13.73
2019-05-07T12:44:25.193Z,13.76
2019-05-07T12:45:25.168Z,13.75
2019-05-07T12:46:25.128Z,13.71
2019-05-07T12:47:25.179Z,13.55
2019-05-07T12:48:25.117Z,13.55
2019-05-07T12:49:25.102Z,13.55
2019-05-07T12:50:25.053Z,13.47
2019-05-07T12:51:33.559Z,13.53
2019-05-07T12:52:26.112Z,13.65
2019-05-07T12:53:25.086Z,13.68
2019-05-07T12:54:25.077Z,13.76
2019-05-07T12:55:25.044Z,13.71
2019-05-07T12:56:25.054Z,13.73
2019-05-07T12:57:24.988Z,13.75
2019-05-07T12:58:25.064Z,13.68
2019-05-07T12:59:24.977Z,13.68
2019-05-07T13:00:24.958Z,13.60
2019-05-07T13:01:24.958Z,13.68
2019-05-07T13:02:37.074Z,13.63
2019-05-07T13:03:25.958Z,13.55
2019-05-07T13:04:24.945Z,13.45
2019-05-07T13:05:24.911Z,13.35
2019-05-07T13:06:24.922Z,13.38
2019-05-07T13:07:24.894Z,13.38
2019-05-07T13:08:24.880Z,13.27